sensor_id;sensor_type;location;lat;lon;timestamp;P1;durP1;ratioP1;P2;durP2;ratioP2
53915;SDS011;39827;49.652;18.770;2023-04-06T00:00:25;340.25;;;309.92;;
53915;SDS011;39827;49.652;18.770;2023-04-06T00:02:51;244.85;;;224.23;;
53915;SDS011;39827;49.652;18.770;2023-04-06T00:05:17;326.23;;;297.08;;
53915;SDS011;39827;49.652;18.770;2023-04-06T00:07:43;337.55;;;308.80;;
53915;SDS011;39827;49.652;18.770;2023-04-06T00:10:09;366.17;;;335.35;;
53915;SDS011;39827;49.652;18.770;2023-04-06T00:12:34;262.77;;;240.40;;
53915;SDS011;39827;49.652;18.770;2023-04-06T00:15:00;325.13;;;298.00;;
53915;SDS011;39827;49.652;18.770;2023-04-06T00:17:26;444.63;;;408.52;;
53915;SDS011;39827;49.652;18.770;2023-04-06T00:19:52;421.80;;;388.83;;
53915;SDS011;39827;49.652;18.770;2023-04-06T00:22:17;586.55;;;540.63;;
53915;SDS011;39827;49.652;18.770;2023-04-06T00:24:43;449.77;;;414.05;;
53915;SDS011;39827;49.652;18.770;2023-04-06T00:27:08;458.35;;;420.35;;
53915;SDS011;39827;49.652;18.770;2023-04-06T00:29:34;375.77;;;345.35;;
53915;SDS011;39827;49.652;18.770;2023-04-06T00:31:59;481.65;;;441.25;;
53915;SDS011;39827;49.652;18.770;2023-04-06T00:34:25;393.90;;;362.42;;
53915;SDS011;39827;49.652;18.770;2023-04-06T00:36:50;428.42;;;393.48;;
53915;SDS011;39827;49.652;18.770;2023-04-06T00:39:15;364.13;;;335.25;;
53915;SDS011;39827;49.652;18.770;2023-04-06T00:41:43;290.45;;;267.70;;
53915;SDS011;39827;49.652;18.770;2023-04-06T00:44:13;386.38;;;356.23;;
53915;SDS011;39827;49.652;18.770;2023-04-06T00:46:39;432.10;;;397.77;;
53915;SDS011;39827;49.652;18.770;2023-04-06T00:49:04;443.48;;;408.10;;
53915;SDS011;39827;49.652;18.770;2023-04-06T00:51:30;513.42;;;472.50;;
53915;SDS011;39827;49.652;18.770;2023-04-06T00:53:55;401.35;;;370.35;;
53915;SDS011;39827;49.652;18.770;2023-04-06T00:56:21;469.80;;;432.92;;
53915;SDS011;39827;49.652;18.770;2023-04-06T00:58:48;584.63;;;538.28;;
53915;SDS011;39827;49.652;18.770;2023-04-06T01:01:14;535.67;;;494.10;;
53915;SDS011;39827;49.652;18.770;2023-04-06T01:03:40;522.40;;;480.52;;
53915;SDS011;39827;49.652;18.770;2023-04-06T01:06:07;465.75;;;428.13;;
53915;SDS011;39827;49.652;18.770;2023-04-06T01:08:32;450.33;;;414.45;;
53915;SDS011;39827;49.652;18.770;2023-04-06T01:10:59;487.23;;;447.27;;
53915;SDS011;39827;49.652;18.770;2023-04-06T01:13:25;435.77;;;400.40;;
53915;SDS011;39827;49.652;18.770;2023-04-06T01:15:52;438.23;;;403.48;;
53915;SDS011;39827;49.652;18.770;2023-04-06T01:18:17;521.35;;;480.08;;
53915;SDS011;39827;49.652;18.770;2023-04-06T01:20:43;472.35;;;434.52;;
53915;SDS011;39827;49.652;18.770;2023-04-06T01:23:08;438.98;;;402.90;;
53915;SDS011;39827;49.652;18.770;2023-04-06T01:25:34;495.08;;;455.38;;
53915;SDS011;39827;49.652;18.770;2023-04-06T01:27:59;477.13;;;438.92;;
53915;SDS011;39827;49.652;18.770;2023-04-06T01:30:25;457.98;;;420.35;;
53915;SDS011;39827;49.652;18.770;2023-04-06T01:32:50;528.20;;;486.25;;
53915;SDS011;39827;49.652;18.770;2023-04-06T01:35:17;481.77;;;443.75;;
53915;SDS011;39827;49.652;18.770;2023-04-06T01:37:43;565.47;;;522.20;;
53915;SDS011;39827;49.652;18.770;2023-04-06T01:40:09;600.35;;;554.38;;
53915;SDS011;39827;49.652;18.770;2023-04-06T01:42:35;448.67;;;412.42;;
53915;SDS011;39827;49.652;18.770;2023-04-06T01:45:00;481.83;;;442.85;;
53915;SDS011;39827;49.652;18.770;2023-04-06T01:47:26;486.63;;;447.25;;
53915;SDS011;39827;49.652;18.770;2023-04-06T01:49:51;504.58;;;464.05;;
53915;SDS011;39827;49.652;18.770;2023-04-06T01:52:17;328.85;;;302.00;;
53915;SDS011;39827;49.652;18.770;2023-04-06T01:54:42;450.85;;;415.70;;
53915;SDS011;39827;49.652;18.770;2023-04-06T01:57:08;497.00;;;457.50;;
53915;SDS011;39827;49.652;18.770;2023-04-06T01:59:34;455.90;;;419.27;;
53915;SDS011;39827;49.652;18.770;2023-04-06T02:02:00;478.17;;;439.75;;
53915;SDS011;39827;49.652;18.770;2023-04-06T02:04:25;563.17;;;519.15;;
53915;SDS011;39827;49.652;18.770;2023-04-06T02:06:51;451.52;;;415.85;;
53915;SDS011;39827;49.652;18.770;2023-04-06T02:09:16;441.27;;;406.02;;
53915;SDS011;39827;49.652;18.770;2023-04-06T02:11:41;395.48;;;364.30;;
53915;SDS011;39827;49.652;18.770;2023-04-06T02:14:07;488.50;;;448.67;;
53915;SDS011;39827;49.652;18.770;2023-04-06T02:16:32;413.08;;;380.15;;
53915;SDS011;39827;49.652;18.770;2023-04-06T02:18:57;394.33;;;362.77;;
53915;SDS011;39827;49.652;18.770;2023-04-06T02:21:23;414.83;;;381.25;;
53915;SDS011;39827;49.652;18.770;2023-04-06T02:23:48;388.80;;;357.35;;
53915;SDS011;39827;49.652;18.770;2023-04-06T02:26:14;459.13;;;422.58;;
53915;SDS011;39827;49.652;18.770;2023-04-06T02:28:40;596.65;;;549.85;;
53915;SDS011;39827;49.652;18.770;2023-04-06T02:31:05;607.42;;;560.30;;
53915;SDS011;39827;49.652;18.770;2023-04-06T02:33:31;559.13;;;516.60;;
53915;SDS011;39827;49.652;18.770;2023-04-06T02:35:56;457.05;;;420.23;;
53915;SDS011;39827;49.652;18.770;2023-04-06T02:38:22;295.70;;;272.60;;
53915;SDS011;39827;49.652;18.770;2023-04-06T02:40:47;424.55;;;390.55;;
53915;SDS011;39827;49.652;18.770;2023-04-06T02:43:12;446.77;;;410.48;;
53915;SDS011;39827;49.652;18.770;2023-04-06T02:45:38;359.30;;;330.00;;
53915;SDS011;39827;49.652;18.770;2023-04-06T02:48:03;469.40;;;431.10;;
53915;SDS011;39827;49.652;18.770;2023-04-06T02:50:29;413.70;;;380.20;;
53915;SDS011;39827;49.652;18.770;2023-04-06T02:52:54;480.23;;;442.40;;
53915;SDS011;39827;49.652;18.770;2023-04-06T02:55:20;409.38;;;376.40;;
53915;SDS011;39827;49.652;18.770;2023-04-06T02:57:45;393.60;;;362.27;;
53915;SDS011;39827;49.652;18.770;2023-04-06T03:00:11;492.70;;;452.50;;
53915;SDS011;39827;49.652;18.770;2023-04-06T03:02:37;463.55;;;425.08;;
53915;SDS011;39827;49.652;18.770;2023-04-06T03:05:03;424.05;;;389.08;;
53915;SDS011;39827;49.652;18.770;2023-04-06T03:07:28;491.27;;;451.40;;
53915;SDS011;39827;49.652;18.770;2023-04-06T03:09:54;429.33;;;395.02;;
53915;SDS011;39827;49.652;18.770;2023-04-06T03:12:20;499.02;;;459.50;;
53915;SDS011;39827;49.652;18.770;2023-04-06T03:14:45;442.70;;;407.23;;
53915;SDS011;39827;49.652;18.770;2023-04-06T03:17:10;437.98;;;403.13;;
53915;SDS011;39827;49.652;18.770;2023-04-06T03:19:36;473.77;;;436.00;;
53915;SDS011;39827;49.652;18.770;2023-04-06T03:22:01;440.38;;;404.67;;
53915;SDS011;39827;49.652;18.770;2023-04-06T03:24:27;386.70;;;356.05;;
53915;SDS011;39827;49.652;18.770;2023-04-06T03:26:52;515.03;;;473.52;;
53915;SDS011;39827;49.652;18.770;2023-04-06T03:29:18;400.77;;;368.73;;
53915;SDS011;39827;49.652;18.770;2023-04-06T03:31:43;474.98;;;437.00;;
53915;SDS011;39827;49.652;18.770;2023-04-06T03:34:09;474.13;;;436.38;;
53915;SDS011;39827;49.652;18.770;2023-04-06T03:36:35;441.50;;;405.98;;
53915;SDS011;39827;49.652;18.770;2023-04-06T03:39:00;384.15;;;354.38;;
53915;SDS011;39827;49.652;18.770;2023-04-06T03:41:26;485.70;;;446.05;;
53915;SDS011;39827;49.652;18.770;2023-04-06T03:43:52;407.38;;;374.55;;
53915;SDS011;39827;49.652;18.770;2023-04-06T03:46:17;460.27;;;422.10;;
53915;SDS011;39827;49.652;18.770;2023-04-06T03:48:42;398.73;;;365.27;;
53915;SDS011;39827;49.652;18.770;2023-04-06T03:51:08;422.55;;;388.90;;
53915;SDS011;39827;49.652;18.770;2023-04-06T03:53:33;487.25;;;448.27;;
53915;SDS011;39827;49.652;18.770;2023-04-06T03:55:59;417.10;;;383.30;;
53915;SDS011;39827;49.652;18.770;2023-04-06T03:58:24;415.52;;;381.63;;
53915;SDS011;39827;49.652;18.770;2023-04-06T04:00:50;440.67;;;406.23;;
53915;SDS011;39827;49.652;18.770;2023-04-06T04:03:15;329.13;;;302.55;;
53915;SDS011;39827;49.652;18.770;2023-04-06T04:05:40;436.50;;;402.20;;
53915;SDS011;39827;49.652;18.770;2023-04-06T04:08:06;416.63;;;382.80;;
53915;SDS011;39827;49.652;18.770;2023-04-06T04:10:32;399.48;;;365.55;;
53915;SDS011;39827;49.652;18.770;2023-04-06T04:12:57;341.63;;;312.35;;
53915;SDS011;39827;49.652;18.770;2023-04-06T04:15:22;390.50;;;358.55;;
53915;SDS011;39827;49.652;18.770;2023-04-06T04:17:48;470.23;;;432.15;;
53915;SDS011;39827;49.652;18.770;2023-04-06T04:20:14;436.30;;;399.20;;
53915;SDS011;39827;49.652;18.770;2023-04-06T04:22:41;433.52;;;398.00;;
53915;SDS011;39827;49.652;18.770;2023-04-06T04:25:06;409.40;;;376.88;;
53915;SDS011;39827;49.652;18.770;2023-04-06T04:27:32;388.85;;;357.73;;
53915;SDS011;39827;49.652;18.770;2023-04-06T04:29:57;458.48;;;422.38;;
53915;SDS011;39827;49.652;18.770;2023-04-06T04:32:23;428.48;;;394.58;;
53915;SDS011;39827;49.652;18.770;2023-04-06T04:34:52;414.38;;;381.52;;
53915;SDS011;39827;49.652;18.770;2023-04-06T04:37:17;376.70;;;346.83;;
53915;SDS011;39827;49.652;18.770;2023-04-06T04:39:43;381.92;;;351.27;;
53915;SDS011;39827;49.652;18.770;2023-04-06T04:42:08;348.15;;;319.80;;
53915;SDS011;39827;49.652;18.770;2023-04-06T04:44:34;323.77;;;298.70;;
53915;SDS011;39827;49.652;18.770;2023-04-06T04:46:59;325.83;;;299.08;;
53915;SDS011;39827;49.652;18.770;2023-04-06T04:49:25;394.58;;;363.70;;
53915;SDS011;39827;49.652;18.770;2023-04-06T04:51:50;419.50;;;385.63;;
53915;SDS011;39827;49.652;18.770;2023-04-06T04:54:17;403.15;;;371.55;;
53915;SDS011;39827;49.652;18.770;2023-04-06T04:56:43;374.70;;;344.27;;
53915;SDS011;39827;49.652;18.770;2023-04-06T04:59:08;464.90;;;427.08;;
53915;SDS011;39827;49.652;18.770;2023-04-06T05:01:33;397.42;;;365.10;;
53915;SDS011;39827;49.652;18.770;2023-04-06T05:03:59;496.85;;;457.48;;
53915;SDS011;39827;49.652;18.770;2023-04-06T05:06:24;498.02;;;457.98;;
53915;SDS011;39827;49.652;18.770;2023-04-06T05:08:50;477.55;;;438.95;;
53915;SDS011;39827;49.652;18.770;2023-04-06T05:11:15;417.85;;;384.00;;
53915;SDS011;39827;49.652;18.770;2023-04-06T05:13:41;386.10;;;354.92;;
53915;SDS011;39827;49.652;18.770;2023-04-06T05:16:07;427.25;;;393.98;;
53915;SDS011;39827;49.652;18.770;2023-04-06T05:18:32;418.08;;;384.85;;
53915;SDS011;39827;49.652;18.770;2023-04-06T05:20:57;446.90;;;410.58;;
53915;SDS011;39827;49.652;18.770;2023-04-06T05:23:23;385.58;;;353.85;;
53915;SDS011;39827;49.652;18.770;2023-04-06T05:25:49;398.02;;;365.35;;
53915;SDS011;39827;49.652;18.770;2023-04-06T05:28:14;296.65;;;272.08;;
53915;SDS011;39827;49.652;18.770;2023-04-06T05:30:41;307.80;;;282.55;;
53915;SDS011;39827;49.652;18.770;2023-04-06T05:33:08;409.75;;;377.30;;
53915;SDS011;39827;49.652;18.770;2023-04-06T05:35:34;378.83;;;348.35;;
53915;SDS011;39827;49.652;18.770;2023-04-06T05:37:59;441.58;;;406.38;;
53915;SDS011;39827;49.652;18.770;2023-04-06T05:40:25;495.83;;;455.75;;
53915;SDS011;39827;49.652;18.770;2023-04-06T05:42:51;331.65;;;303.42;;
53915;SDS011;39827;49.652;18.770;2023-04-06T05:45:16;563.20;;;519.03;;
53915;SDS011;39827;49.652;18.770;2023-04-06T05:47:43;647.08;;;597.50;;
53915;SDS011;39827;49.652;18.770;2023-04-06T05:50:09;590.00;;;543.42;;
53915;SDS011;39827;49.652;18.770;2023-04-06T05:52:40;626.47;;;577.88;;
53915;SDS011;39827;49.652;18.770;2023-04-06T05:55:11;640.08;;;589.67;;
53915;SDS011;39827;49.652;18.770;2023-04-06T05:57:37;659.50;;;608.78;;
53915;SDS011;39827;49.652;18.770;2023-04-06T06:00:02;455.13;;;419.05;;
53915;SDS011;39827;49.652;18.770;2023-04-06T06:02:32;417.52;;;385.52;;
53915;SDS011;39827;49.652;18.770;2023-04-06T06:04:57;481.02;;;444.00;;
53915;SDS011;39827;49.652;18.770;2023-04-06T06:07:23;447.52;;;412.85;;
53915;SDS011;39827;49.652;18.770;2023-04-06T06:09:48;440.83;;;406.63;;
53915;SDS011;39827;49.652;18.770;2023-04-06T06:12:14;475.50;;;438.58;;
53915;SDS011;39827;49.652;18.770;2023-04-06T06:14:40;715.58;;;660.22;;
53915;SDS011;39827;49.652;18.770;2023-04-06T06:17:05;695.65;;;642.45;;
53915;SDS011;39827;49.652;18.770;2023-04-06T06:19:30;690.10;;;638.63;;
53915;SDS011;39827;49.652;18.770;2023-04-06T06:21:56;740.67;;;685.90;;
53915;SDS011;39827;49.652;18.770;2023-04-06T06:24:21;777.00;;;719.60;;
53915;SDS011;39827;49.652;18.770;2023-04-06T06:26:47;767.13;;;711.03;;
53915;SDS011;39827;49.652;18.770;2023-04-06T06:29:13;861.28;;;795.90;;
53915;SDS011;39827;49.652;18.770;2023-04-06T06:31:39;907.17;;;834.20;;
53915;SDS011;39827;49.652;18.770;2023-04-06T06:34:05;911.83;;;841.53;;
53915;SDS011;39827;49.652;18.770;2023-04-06T06:36:31;985.92;;;904.90;;
53915;SDS011;39827;49.652;18.770;2023-04-06T06:38:57;805.60;;;736.60;;
53915;SDS011;39827;49.652;18.770;2023-04-06T06:41:23;1047.50;;;954.65;;
53915;SDS011;39827;49.652;18.770;2023-04-06T06:43:49;1056.13;;;960.70;;
53915;SDS011;39827;49.652;18.770;2023-04-06T06:46:14;1100.65;;;997.88;;
53915;SDS011;39827;49.652;18.770;2023-04-06T06:48:40;1073.30;;;977.25;;
53915;SDS011;39827;49.652;18.770;2023-04-06T06:51:05;1050.53;;;958.40;;
53915;SDS011;39827;49.652;18.770;2023-04-06T06:53:31;1069.30;;;974.83;;
53915;SDS011;39827;49.652;18.770;2023-04-06T06:55:56;1101.28;;;999.03;;
53915;SDS011;39827;49.652;18.770;2023-04-06T06:58:22;1105.90;;;999.45;;
53915;SDS011;39827;49.652;18.770;2023-04-06T07:00:47;1102.45;;;999.00;;
53915;SDS011;39827;49.652;18.770;2023-04-06T07:03:12;1112.45;;;999.90;;
53915;SDS011;39827;49.652;18.770;2023-04-06T07:05:38;1126.00;;;999.90;;
53915;SDS011;39827;49.652;18.770;2023-04-06T07:08:13;1141.05;;;999.90;;
53915;SDS011;39827;49.652;18.770;2023-04-06T07:10:39;1125.53;;;999.90;;
53915;SDS011;39827;49.652;18.770;2023-04-06T07:13:04;1139.70;;;999.90;;
53915;SDS011;39827;49.652;18.770;2023-04-06T07:15:30;1121.35;;;999.90;;
53915;SDS011;39827;49.652;18.770;2023-04-06T07:17:55;942.90;;;875.35;;
53915;SDS011;39827;49.652;18.770;2023-04-06T07:20:21;991.10;;;918.38;;
53915;SDS011;39827;49.652;18.770;2023-04-06T07:22:46;1005.55;;;931.22;;
53915;SDS011;39827;49.652;18.770;2023-04-06T07:25:13;908.20;;;842.78;;
53915;SDS011;39827;49.652;18.770;2023-04-06T07:27:38;943.22;;;876.00;;
53915;SDS011;39827;49.652;18.770;2023-04-06T07:30:04;936.85;;;869.97;;
53915;SDS011;39827;49.652;18.770;2023-04-06T07:32:30;957.65;;;888.92;;
53915;SDS011;39827;49.652;18.770;2023-04-06T07:34:56;979.10;;;907.20;;
53915;SDS011;39827;49.652;18.770;2023-04-06T07:37:21;964.78;;;894.90;;
53915;SDS011;39827;49.652;18.770;2023-04-06T07:39:47;994.60;;;921.55;;
53915;SDS011;39827;49.652;18.770;2023-04-06T07:42:12;1018.20;;;941.85;;
53915;SDS011;39827;49.652;18.770;2023-04-06T07:44:38;980.97;;;908.38;;
53915;SDS011;39827;49.652;18.770;2023-04-06T07:47:03;974.40;;;903.22;;
53915;SDS011;39827;49.652;18.770;2023-04-06T07:49:28;1024.13;;;946.95;;
53915;SDS011;39827;49.652;18.770;2023-04-06T07:51:54;1090.68;;;993.47;;
53915;SDS011;39827;49.652;18.770;2023-04-06T07:54:21;1093.93;;;994.33;;
53915;SDS011;39827;49.652;18.770;2023-04-06T07:56:46;1116.55;;;999.90;;
53915;SDS011;39827;49.652;18.770;2023-04-06T07:59:11;1118.63;;;999.90;;
53915;SDS011;39827;49.652;18.770;2023-04-06T08:01:38;1102.97;;;999.58;;
53915;SDS011;39827;49.652;18.770;2023-04-06T08:04:03;1107.47;;;999.90;;
53915;SDS011;39827;49.652;18.770;2023-04-06T08:06:29;1093.97;;;993.20;;
53915;SDS011;39827;49.652;18.770;2023-04-06T08:08:55;1083.45;;;987.50;;
53915;SDS011;39827;49.652;18.770;2023-04-06T08:11:20;1076.40;;;979.33;;
53915;SDS011;39827;49.652;18.770;2023-04-06T08:13:46;1091.80;;;989.30;;
53915;SDS011;39827;49.652;18.770;2023-04-06T08:16:11;1098.25;;;995.28;;
53915;SDS011;39827;49.652;18.770;2023-04-06T08:18:37;949.60;;;881.92;;
53915;SDS011;39827;49.652;18.770;2023-04-06T08:21:02;992.88;;;921.47;;
53915;SDS011;39827;49.652;18.770;2023-04-06T08:23:28;953.95;;;886.95;;
53915;SDS011;39827;49.652;18.770;2023-04-06T08:25:53;945.63;;;881.03;;
53915;SDS011;39827;49.652;18.770;2023-04-06T08:28:19;916.30;;;854.67;;
53915;SDS011;39827;49.652;18.770;2023-04-06T08:30:46;812.17;;;757.47;;
53915;SDS011;39827;49.652;18.770;2023-04-06T08:33:11;725.53;;;677.05;;
53915;SDS011;39827;49.652;18.770;2023-04-06T08:35:37;719.05;;;670.10;;
53915;SDS011;39827;49.652;18.770;2023-04-06T08:38:02;626.75;;;583.63;;
53915;SDS011;39827;49.652;18.770;2023-04-06T08:40:28;505.85;;;471.13;;
53915;SDS011;39827;49.652;18.770;2023-04-06T08:42:56;529.92;;;492.52;;
53915;SDS011;39827;49.652;18.770;2023-04-06T08:45:27;534.17;;;496.67;;
53915;SDS011;39827;49.652;18.770;2023-04-06T08:47:52;479.38;;;446.55;;
53915;SDS011;39827;49.652;18.770;2023-04-06T08:50:19;478.33;;;444.20;;
53915;SDS011;39827;49.652;18.770;2023-04-06T08:52:48;540.33;;;501.50;;
53915;SDS011;39827;49.652;18.770;2023-04-06T08:55:14;600.25;;;556.55;;
53915;SDS011;39827;49.652;18.770;2023-04-06T08:57:41;653.17;;;606.55;;
53915;SDS011;39827;49.652;18.770;2023-04-06T09:00:07;634.38;;;589.25;;
53915;SDS011;39827;49.652;18.770;2023-04-06T09:02:37;568.83;;;528.08;;
53915;SDS011;39827;49.652;18.770;2023-04-06T09:05:04;543.50;;;504.95;;
53915;SDS011;39827;49.652;18.770;2023-04-06T09:07:29;552.22;;;512.65;;
53915;SDS011;39827;49.652;18.770;2023-04-06T09:09:55;541.83;;;502.98;;
53915;SDS011;39827;49.652;18.770;2023-04-06T09:12:22;560.42;;;520.35;;
53915;SDS011;39827;49.652;18.770;2023-04-06T09:14:48;539.90;;;500.77;;
53915;SDS011;39827;49.652;18.770;2023-04-06T09:17:20;575.95;;;534.17;;
53915;SDS011;39827;49.652;18.770;2023-04-06T09:19:50;590.80;;;547.28;;
53915;SDS011;39827;49.652;18.770;2023-04-06T09:22:16;579.42;;;536.75;;
53915;SDS011;39827;49.652;18.770;2023-04-06T09:24:46;553.30;;;512.70;;
53915;SDS011;39827;49.652;18.770;2023-04-06T09:27:16;596.45;;;552.92;;
53915;SDS011;39827;49.652;18.770;2023-04-06T09:29:44;660.65;;;613.65;;
53915;SDS011;39827;49.652;18.770;2023-04-06T09:32:10;661.10;;;614.60;;
53915;SDS011;39827;49.652;18.770;2023-04-06T09:34:37;752.33;;;698.70;;
53915;SDS011;39827;49.652;18.770;2023-04-06T09:37:13;708.92;;;659.17;;
53915;SDS011;39827;49.652;18.770;2023-04-06T09:39:41;827.40;;;768.72;;
53915;SDS011;39827;49.652;18.770;2023-04-06T09:42:07;793.22;;;739.38;;
53915;SDS011;39827;49.652;18.770;2023-04-06T09:44:32;836.38;;;779.42;;
53915;SDS011;39827;49.652;18.770;2023-04-06T09:46:58;911.17;;;847.92;;
53915;SDS011;39827;49.652;18.770;2023-04-06T09:49:24;904.38;;;841.70;;
53915;SDS011;39827;49.652;18.770;2023-04-06T09:51:56;905.67;;;844.80;;
53915;SDS011;39827;49.652;18.770;2023-04-06T09:54:28;916.92;;;854.25;;
53915;SDS011;39827;49.652;18.770;2023-04-06T09:57:04;898.40;;;835.97;;
53915;SDS011;39827;49.652;18.770;2023-04-06T10:02:48;937.42;;;872.10;;
53915;SDS011;39827;49.652;18.770;2023-04-06T10:08:06;876.42;;;815.90;;
53915;SDS011;39827;49.652;18.770;2023-04-06T10:10:35;914.55;;;851.47;;
53915;SDS011;39827;49.652;18.770;2023-04-06T10:13:00;884.38;;;822.53;;
53915;SDS011;39827;49.652;18.770;2023-04-06T10:15:29;977.65;;;908.28;;
53915;SDS011;39827;49.652;18.770;2023-04-06T10:17:55;905.17;;;842.78;;
53915;SDS011;39827;49.652;18.770;2023-04-06T10:20:28;923.35;;;858.65;;
53915;SDS011;39827;49.652;18.770;2023-04-06T10:23:26;949.92;;;883.10;;
53915;SDS011;39827;49.652;18.770;2023-04-06T10:25:59;967.25;;;899.00;;
53915;SDS011;39827;49.652;18.770;2023-04-06T10:28:26;952.63;;;886.30;;
53915;SDS011;39827;49.652;18.770;2023-04-06T10:30:57;984.00;;;913.35;;
53915;SDS011;39827;49.652;18.770;2023-04-06T10:33:24;978.13;;;908.95;;
53915;SDS011;39827;49.652;18.770;2023-04-06T10:35:50;945.10;;;879.72;;
53915;SDS011;39827;49.652;18.770;2023-04-06T10:38:15;940.95;;;876.45;;
53915;SDS011;39827;49.652;18.770;2023-04-06T10:40:45;969.50;;;900.20;;
53915;SDS011;39827;49.652;18.770;2023-04-06T10:43:20;963.42;;;895.70;;
53915;SDS011;39827;49.652;18.770;2023-04-06T10:45:56;972.83;;;903.25;;
53915;SDS011;39827;49.652;18.770;2023-04-06T10:48:25;928.67;;;864.97;;
53915;SDS011;39827;49.652;18.770;2023-04-06T10:51:00;902.63;;;840.63;;
53915;SDS011;39827;49.652;18.770;2023-04-06T10:53:26;900.83;;;839.25;;
53915;SDS011;39827;49.652;18.770;2023-04-06T10:55:54;926.63;;;863.10;;
53915;SDS011;39827;49.652;18.770;2023-04-06T10:58:24;948.20;;;881.50;;
53915;SDS011;39827;49.652;18.770;2023-04-06T11:00:50;916.85;;;853.92;;
53915;SDS011;39827;49.652;18.770;2023-04-06T11:03:16;892.35;;;831.10;;
53915;SDS011;39827;49.652;18.770;2023-04-06T11:05:48;941.58;;;876.03;;
53915;SDS011;39827;49.652;18.770;2023-04-06T11:08:30;954.00;;;886.45;;
53915;SDS011;39827;49.652;18.770;2023-04-06T11:13:40;901.60;;;840.00;;
53915;SDS011;39827;49.652;18.770;2023-04-06T11:16:22;924.17;;;860.10;;
53915;SDS011;39827;49.652;18.770;2023-04-06T11:19:01;933.70;;;869.70;;
53915;SDS011;39827;49.652;18.770;2023-04-06T11:24:04;980.35;;;910.58;;
53915;SDS011;39827;49.652;18.770;2023-04-06T11:26:30;938.78;;;874.15;;
53915;SDS011;39827;49.652;18.770;2023-04-06T11:28:55;956.35;;;888.35;;
53915;SDS011;39827;49.652;18.770;2023-04-06T11:31:24;954.60;;;888.05;;
53915;SDS011;39827;49.652;18.770;2023-04-06T11:33:55;922.38;;;857.85;;
53915;SDS011;39827;49.652;18.770;2023-04-06T11:36:21;969.08;;;900.70;;
53915;SDS011;39827;49.652;18.770;2023-04-06T11:38:47;932.60;;;867.30;;
53915;SDS011;39827;49.652;18.770;2023-04-06T11:41:12;996.17;;;923.85;;
53915;SDS011;39827;49.652;18.770;2023-04-06T11:43:37;991.53;;;920.03;;
53915;SDS011;39827;49.652;18.770;2023-04-06T11:46:03;948.50;;;882.42;;
53915;SDS011;39827;49.652;18.770;2023-04-06T11:48:29;977.22;;;907.13;;
53915;SDS011;39827;49.652;18.770;2023-04-06T11:50:59;987.10;;;915.65;;
53915;SDS011;39827;49.652;18.770;2023-04-06T11:53:26;972.75;;;903.45;;
53915;SDS011;39827;49.652;18.770;2023-04-06T11:55:53;946.88;;;878.95;;
53915;SDS011;39827;49.652;18.770;2023-04-06T11:58:18;962.17;;;894.00;;
53915;SDS011;39827;49.652;18.770;2023-04-06T12:00:43;988.97;;;916.65;;
53915;SDS011;39827;49.652;18.770;2023-04-06T12:03:10;1006.90;;;933.10;;
53915;SDS011;39827;49.652;18.770;2023-04-06T12:05:36;988.88;;;915.22;;
53915;SDS011;39827;49.652;18.770;2023-04-06T12:08:02;994.00;;;921.22;;
53915;SDS011;39827;49.652;18.770;2023-04-06T12:10:28;1020.63;;;944.28;;
53915;SDS011;39827;49.652;18.770;2023-04-06T12:12:53;1016.10;;;940.20;;
53915;SDS011;39827;49.652;18.770;2023-04-06T12:15:18;1004.22;;;930.55;;
53915;SDS011;39827;49.652;18.770;2023-04-06T12:17:44;1046.82;;;968.38;;
53915;SDS011;39827;49.652;18.770;2023-04-06T12:20:10;977.67;;;906.15;;
53915;SDS011;39827;49.652;18.770;2023-04-06T12:22:35;1041.05;;;962.47;;
53915;SDS011;39827;49.652;18.770;2023-04-06T12:25:01;1036.05;;;957.55;;
53915;SDS011;39827;49.652;18.770;2023-04-06T12:27:26;1029.75;;;952.08;;
53915;SDS011;39827;49.652;18.770;2023-04-06T12:29:52;1055.43;;;973.70;;
53915;SDS011;39827;49.652;18.770;2023-04-06T12:32:17;1054.32;;;972.85;;
53915;SDS011;39827;49.652;18.770;2023-04-06T12:34:44;1016.92;;;940.90;;
53915;SDS011;39827;49.652;18.770;2023-04-06T12:37:09;1021.05;;;944.75;;
53915;SDS011;39827;49.652;18.770;2023-04-06T12:39:34;1035.45;;;956.55;;
53915;SDS011;39827;49.652;18.770;2023-04-06T12:42:00;1007.00;;;931.60;;
53915;SDS011;39827;49.652;18.770;2023-04-06T12:44:26;989.75;;;914.20;;
53915;SDS011;39827;49.652;18.770;2023-04-06T12:46:51;978.97;;;905.22;;
53915;SDS011;39827;49.652;18.770;2023-04-06T12:49:17;989.60;;;913.53;;
53915;SDS011;39827;49.652;18.770;2023-04-06T12:51:44;1076.10;;;973.25;;
53915;SDS011;39827;49.652;18.770;2023-04-06T12:54:10;1085.57;;;982.78;;
53915;SDS011;39827;49.652;18.770;2023-04-06T12:56:36;1053.78;;;955.88;;
53915;SDS011;39827;49.652;18.770;2023-04-06T12:59:02;1060.10;;;961.70;;
53915;SDS011;39827;49.652;18.770;2023-04-06T13:01:27;1084.72;;;983.92;;
53915;SDS011;39827;49.652;18.770;2023-04-06T13:03:53;1075.63;;;976.00;;
53915;SDS011;39827;49.652;18.770;2023-04-06T13:06:18;1087.07;;;986.33;;
53915;SDS011;39827;49.652;18.770;2023-04-06T13:08:44;1043.25;;;949.25;;
53915;SDS011;39827;49.652;18.770;2023-04-06T13:11:12;1077.03;;;979.03;;
53915;SDS011;39827;49.652;18.770;2023-04-06T13:13:37;1067.40;;;971.45;;
53915;SDS011;39827;49.652;18.770;2023-04-06T13:16:04;1075.25;;;977.63;;
53915;SDS011;39827;49.652;18.770;2023-04-06T13:18:31;1073.55;;;974.63;;
53915;SDS011;39827;49.652;18.770;2023-04-06T13:20:57;1065.53;;;969.80;;
53915;SDS011;39827;49.652;18.770;2023-04-06T13:23:24;1053.15;;;958.22;;
53915;SDS011;39827;49.652;18.770;2023-04-06T13:26:03;1023.03;;;932.13;;
53915;SDS011;39827;49.652;18.770;2023-04-06T13:28:30;1010.72;;;922.65;;
53915;SDS011;39827;49.652;18.770;2023-04-06T13:30:57;960.40;;;879.95;;
53915;SDS011;39827;49.652;18.770;2023-04-06T13:33:23;979.95;;;896.75;;
53915;SDS011;39827;49.652;18.770;2023-04-06T13:35:49;979.45;;;895.88;;
53915;SDS011;39827;49.652;18.770;2023-04-06T13:38:15;918.13;;;844.38;;
53915;SDS011;39827;49.652;18.770;2023-04-06T13:40:41;915.75;;;843.15;;
53915;SDS011;39827;49.652;18.770;2023-04-06T13:43:07;949.08;;;872.45;;
53915;SDS011;39827;49.652;18.770;2023-04-06T13:45:32;780.45;;;723.70;;
53915;SDS011;39827;49.652;18.770;2023-04-06T13:47:58;847.50;;;784.78;;
53915;SDS011;39827;49.652;18.770;2023-04-06T13:50:27;845.92;;;784.08;;